sensor_id;sensor_type;location;lat;lon;timestamp;P1;durP1;ratioP1;P2;durP2;ratioP2
66575;SDS011;53428;47.686;16.584;2023-07-29T00:04:11;4.95;;;2.97;;
66575;SDS011;53428;47.686;16.584;2023-07-29T00:09:11;5.25;;;3.78;;
66575;SDS011;53428;47.686;16.584;2023-07-29T00:14:10;13.98;;;3.72;;
66575;SDS011;53428;47.686;16.584;2023-07-29T00:19:09;9.65;;;3.55;;
66575;SDS011;53428;47.686;16.584;2023-07-29T00:24:09;8.35;;;2.95;;
66575;SDS011;53428;47.686;16.584;2023-07-29T00:29:08;4.60;;;3.05;;
66575;SDS011;53428;47.686;16.584;2023-07-29T00:34:07;4.07;;;2.92;;
66575;SDS011;53428;47.686;16.584;2023-07-29T00:39:06;4.78;;;2.45;;
66575;SDS011;53428;47.686;16.584;2023-07-29T00:44:06;5.68;;;2.75;;
66575;SDS011;53428;47.686;16.584;2023-07-29T00:49:05;4.68;;;2.97;;
66575;SDS011;53428;47.686;16.584;2023-07-29T00:54:04;7.05;;;3.15;;
66575;SDS011;53428;47.686;16.584;2023-07-29T00:59:04;6.47;;;2.50;;
66575;SDS011;53428;47.686;16.584;2023-07-29T01:04:03;4.75;;;3.35;;
66575;SDS011;53428;47.686;16.584;2023-07-29T01:09:04;5.95;;;3.63;;
66575;SDS011;53428;47.686;16.584;2023-07-29T01:14:33;5.45;;;3.22;;
66575;SDS011;53428;47.686;16.584;2023-07-29T01:24:48;5.28;;;2.80;;
66575;SDS011;53428;47.686;16.584;2023-07-29T01:29:48;6.32;;;2.90;;
66575;SDS011;53428;47.686;16.584;2023-07-29T01:34:48;5.15;;;3.60;;
66575;SDS011;53428;47.686;16.584;2023-07-29T01:39:57;8.13;;;3.28;;
66575;SDS011;53428;47.686;16.584;2023-07-29T01:44:59;4.63;;;3.25;;
66575;SDS011;53428;47.686;16.584;2023-07-29T01:49:59;7.68;;;3.22;;
66575;SDS011;53428;47.686;16.584;2023-07-29T01:54:58;7.18;;;2.55;;
66575;SDS011;53428;47.686;16.584;2023-07-29T01:59:57;5.78;;;4.05;;
66575;SDS011;53428;47.686;16.584;2023-07-29T02:04:57;7.97;;;3.17;;
66575;SDS011;53428;47.686;16.584;2023-07-29T02:09:56;7.93;;;3.15;;
66575;SDS011;53428;47.686;16.584;2023-07-29T02:14:56;6.50;;;3.25;;
66575;SDS011;53428;47.686;16.584;2023-07-29T02:19:55;5.57;;;3.15;;
66575;SDS011;53428;47.686;16.584;2023-07-29T02:24:54;5.00;;;3.03;;
66575;SDS011;53428;47.686;16.584;2023-07-29T02:29:53;4.05;;;2.85;;
66575;SDS011;53428;47.686;16.584;2023-07-29T02:34:53;5.30;;;2.67;;
66575;SDS011;53428;47.686;16.584;2023-07-29T02:39:52;4.53;;;3.08;;
66575;SDS011;53428;47.686;16.584;2023-07-29T02:44:51;4.22;;;3.13;;
66575;SDS011;53428;47.686;16.584;2023-07-29T02:49:51;4.10;;;2.88;;
66575;SDS011;53428;47.686;16.584;2023-07-29T02:54:50;3.92;;;3.03;;
66575;SDS011;53428;47.686;16.584;2023-07-29T02:59:49;5.07;;;3.20;;
66575;SDS011;53428;47.686;16.584;2023-07-29T03:04:49;9.32;;;3.65;;
66575;SDS011;53428;47.686;16.584;2023-07-29T03:09:48;8.32;;;3.30;;
66575;SDS011;53428;47.686;16.584;2023-07-29T03:14:47;7.93;;;3.28;;
66575;SDS011;53428;47.686;16.584;2023-07-29T03:19:47;3.97;;;3.13;;
66575;SDS011;53428;47.686;16.584;2023-07-29T03:24:46;6.07;;;4.50;;
66575;SDS011;53428;47.686;16.584;2023-07-29T03:29:46;4.95;;;3.03;;
66575;SDS011;53428;47.686;16.584;2023-07-29T03:34:45;4.85;;;3.10;;
66575;SDS011;53428;47.686;16.584;2023-07-29T03:39:44;10.85;;;3.63;;
66575;SDS011;53428;47.686;16.584;2023-07-29T03:44:44;4.07;;;3.13;;
66575;SDS011;53428;47.686;16.584;2023-07-29T03:49:43;5.82;;;3.15;;
66575;SDS011;53428;47.686;16.584;2023-07-29T03:54:43;8.43;;;3.30;;
66575;SDS011;53428;47.686;16.584;2023-07-29T03:59:42;8.90;;;3.55;;
66575;SDS011;53428;47.686;16.584;2023-07-29T04:04:41;7.68;;;3.35;;
66575;SDS011;53428;47.686;16.584;2023-07-29T04:09:42;5.57;;;2.88;;
66575;SDS011;53428;47.686;16.584;2023-07-29T04:14:42;5.43;;;3.30;;
66575;SDS011;53428;47.686;16.584;2023-07-29T04:19:42;4.30;;;3.05;;
66575;SDS011;53428;47.686;16.584;2023-07-29T04:24:41;21.10;;;4.60;;
66575;SDS011;53428;47.686;16.584;2023-07-29T04:29:41;9.65;;;3.50;;
66575;SDS011;53428;47.686;16.584;2023-07-29T04:34:40;10.05;;;3.33;;
66575;SDS011;53428;47.686;16.584;2023-07-29T04:39:39;7.45;;;3.42;;
66575;SDS011;53428;47.686;16.584;2023-07-29T04:44:39;5.53;;;2.95;;
66575;SDS011;53428;47.686;16.584;2023-07-29T04:49:40;5.82;;;3.03;;
66575;SDS011;53428;47.686;16.584;2023-07-29T04:54:40;4.47;;;3.38;;
66575;SDS011;53428;47.686;16.584;2023-07-29T04:59:40;7.88;;;3.35;;
66575;SDS011;53428;47.686;16.584;2023-07-29T05:04:39;7.25;;;3.53;;
66575;SDS011;53428;47.686;16.584;2023-07-29T05:09:38;6.90;;;3.55;;
66575;SDS011;53428;47.686;16.584;2023-07-29T05:14:38;5.82;;;3.28;;
66575;SDS011;53428;47.686;16.584;2023-07-29T05:19:37;3.40;;;2.78;;
66575;SDS011;53428;47.686;16.584;2023-07-29T05:24:36;6.05;;;3.67;;
66575;SDS011;53428;47.686;16.584;2023-07-29T05:29:36;5.13;;;3.42;;
66575;SDS011;53428;47.686;16.584;2023-07-29T05:34:35;3.75;;;3.40;;
66575;SDS011;53428;47.686;16.584;2023-07-29T05:39:35;5.38;;;3.50;;
66575;SDS011;53428;47.686;16.584;2023-07-29T05:44:34;7.13;;;3.55;;
66575;SDS011;53428;47.686;16.584;2023-07-29T05:49:33;12.00;;;3.40;;
66575;SDS011;53428;47.686;16.584;2023-07-29T05:54:33;7.65;;;3.47;;
66575;SDS011;53428;47.686;16.584;2023-07-29T05:59:32;9.45;;;3.05;;
66575;SDS011;53428;47.686;16.584;2023-07-29T06:04:32;4.60;;;2.75;;
66575;SDS011;53428;47.686;16.584;2023-07-29T06:09:31;14.80;;;3.15;;
66575;SDS011;53428;47.686;16.584;2023-07-29T06:14:31;3.08;;;2.47;;
66575;SDS011;53428;47.686;16.584;2023-07-29T06:19:30;3.35;;;2.38;;
66575;SDS011;53428;47.686;16.584;2023-07-29T06:24:29;5.18;;;3.20;;
66575;SDS011;53428;47.686;16.584;2023-07-29T06:29:29;4.90;;;2.53;;
66575;SDS011;53428;47.686;16.584;2023-07-29T06:34:28;4.45;;;2.90;;
66575;SDS011;53428;47.686;16.584;2023-07-29T06:39:28;2.83;;;2.40;;
66575;SDS011;53428;47.686;16.584;2023-07-29T06:44:27;3.83;;;3.08;;
66575;SDS011;53428;47.686;16.584;2023-07-29T06:49:26;3.35;;;2.53;;
66575;SDS011;53428;47.686;16.584;2023-07-29T06:54:26;4.70;;;2.10;;
66575;SDS011;53428;47.686;16.584;2023-07-29T06:59:25;3.30;;;2.15;;
66575;SDS011;53428;47.686;16.584;2023-07-29T07:04:25;4.57;;;1.88;;
66575;SDS011;53428;47.686;16.584;2023-07-29T07:09:24;3.72;;;2.42;;
66575;SDS011;53428;47.686;16.584;2023-07-29T07:14:24;5.63;;;2.30;;
66575;SDS011;53428;47.686;16.584;2023-07-29T07:19:23;5.68;;;2.17;;
66575;SDS011;53428;47.686;16.584;2023-07-29T07:24:23;4.85;;;2.72;;
66575;SDS011;53428;47.686;16.584;2023-07-29T07:29:22;5.00;;;2.70;;
66575;SDS011;53428;47.686;16.584;2023-07-29T07:34:22;6.07;;;3.35;;
66575;SDS011;53428;47.686;16.584;2023-07-29T07:39:22;3.45;;;2.40;;
66575;SDS011;53428;47.686;16.584;2023-07-29T07:44:21;2.75;;;2.05;;
66575;SDS011;53428;47.686;16.584;2023-07-29T07:49:21;9.18;;;2.85;;
66575;SDS011;53428;47.686;16.584;2023-07-29T07:54:21;3.25;;;2.65;;
66575;SDS011;53428;47.686;16.584;2023-07-29T07:59:20;2.70;;;2.38;;
66575;SDS011;53428;47.686;16.584;2023-07-29T08:04:20;8.18;;;5.85;;
66575;SDS011;53428;47.686;16.584;2023-07-29T08:09:19;5.53;;;2.85;;
66575;SDS011;53428;47.686;16.584;2023-07-29T08:14:19;4.00;;;2.60;;
66575;SDS011;53428;47.686;16.584;2023-07-29T08:19:18;8.00;;;3.05;;
66575;SDS011;53428;47.686;16.584;2023-07-29T08:24:18;3.00;;;2.05;;
66575;SDS011;53428;47.686;16.584;2023-07-29T08:29:17;5.22;;;2.90;;
66575;SDS011;53428;47.686;16.584;2023-07-29T08:34:17;4.32;;;2.83;;
66575;SDS011;53428;47.686;16.584;2023-07-29T08:39:17;2.63;;;2.20;;
66575;SDS011;53428;47.686;16.584;2023-07-29T08:44:23;5.18;;;2.80;;
66575;SDS011;53428;47.686;16.584;2023-07-29T08:49:25;2.85;;;2.58;;
66575;SDS011;53428;47.686;16.584;2023-07-29T08:54:25;3.38;;;2.53;;
66575;SDS011;53428;47.686;16.584;2023-07-29T08:59:25;2.58;;;2.15;;
66575;SDS011;53428;47.686;16.584;2023-07-29T09:04:26;3.05;;;2.35;;
66575;SDS011;53428;47.686;16.584;2023-07-29T09:09:27;6.82;;;2.70;;
66575;SDS011;53428;47.686;16.584;2023-07-29T09:14:27;7.70;;;2.35;;
66575;SDS011;53428;47.686;16.584;2023-07-29T09:19:27;12.40;;;2.97;;
66575;SDS011;53428;47.686;16.584;2023-07-29T09:24:26;6.18;;;2.17;;
66575;SDS011;53428;47.686;16.584;2023-07-29T09:29:28;3.97;;;2.58;;
66575;SDS011;53428;47.686;16.584;2023-07-29T09:34:28;4.95;;;2.60;;
66575;SDS011;53428;47.686;16.584;2023-07-29T09:39:28;4.45;;;1.98;;
66575;SDS011;53428;47.686;16.584;2023-07-29T09:44:27;2.65;;;2.25;;
66575;SDS011;53428;47.686;16.584;2023-07-29T09:49:34;3.67;;;1.98;;
66575;SDS011;53428;47.686;16.584;2023-07-29T09:54:36;7.72;;;2.08;;
66575;SDS011;53428;47.686;16.584;2023-07-29T09:59:35;6.00;;;2.30;;
66575;SDS011;53428;47.686;16.584;2023-07-29T10:04:36;2.70;;;2.35;;
66575;SDS011;53428;47.686;16.584;2023-07-29T10:09:36;2.75;;;2.30;;
66575;SDS011;53428;47.686;16.584;2023-07-29T10:14:38;4.65;;;2.67;;
66575;SDS011;53428;47.686;16.584;2023-07-29T10:19:37;3.40;;;2.90;;
66575;SDS011;53428;47.686;16.584;2023-07-29T10:24:38;5.45;;;2.53;;
66575;SDS011;53428;47.686;16.584;2023-07-29T10:29:41;3.00;;;2.20;;
66575;SDS011;53428;47.686;16.584;2023-07-29T10:34:42;7.68;;;2.22;;
66575;SDS011;53428;47.686;16.584;2023-07-29T10:39:41;4.40;;;2.35;;
66575;SDS011;53428;47.686;16.584;2023-07-29T10:44:52;5.55;;;2.55;;
66575;SDS011;53428;47.686;16.584;2023-07-29T10:49:53;3.97;;;2.40;;
66575;SDS011;53428;47.686;16.584;2023-07-29T10:54:53;2.88;;;2.05;;
66575;SDS011;53428;47.686;16.584;2023-07-29T10:59:54;3.22;;;2.17;;
66575;SDS011;53428;47.686;16.584;2023-07-29T11:04:54;2.83;;;2.40;;
66575;SDS011;53428;47.686;16.584;2023-07-29T11:09:58;3.13;;;2.20;;
66575;SDS011;53428;47.686;16.584;2023-07-29T11:15:02;2.63;;;1.77;;
66575;SDS011;53428;47.686;16.584;2023-07-29T11:20:08;2.20;;;2.00;;
66575;SDS011;53428;47.686;16.584;2023-07-29T11:25:09;3.20;;;2.53;;
66575;SDS011;53428;47.686;16.584;2023-07-29T11:30:11;2.60;;;2.40;;
66575;SDS011;53428;47.686;16.584;2023-07-29T11:35:12;2.53;;;1.80;;
66575;SDS011;53428;47.686;16.584;2023-07-29T11:40:19;2.40;;;2.20;;
66575;SDS011;53428;47.686;16.584;2023-07-29T11:45:20;5.43;;;2.00;;
66575;SDS011;53428;47.686;16.584;2023-07-29T11:50:21;2.60;;;2.00;;
66575;SDS011;53428;47.686;16.584;2023-07-29T11:55:20;4.47;;;2.13;;
66575;SDS011;53428;47.686;16.584;2023-07-29T12:00:20;1.98;;;1.55;;
66575;SDS011;53428;47.686;16.584;2023-07-29T12:05:20;4.90;;;1.80;;
66575;SDS011;53428;47.686;16.584;2023-07-29T12:10:21;3.00;;;1.85;;
66575;SDS011;53428;47.686;16.584;2023-07-29T12:15:25;1.90;;;1.63;;
66575;SDS011;53428;47.686;16.584;2023-07-29T12:20:25;4.20;;;3.60;;
66575;SDS011;53428;47.686;16.584;2023-07-29T12:30:25;2.47;;;2.28;;
66575;SDS011;53428;47.686;16.584;2023-07-29T12:35:33;10.80;;;1.90;;
66575;SDS011;53428;47.686;16.584;2023-07-29T12:40:37;10.02;;;2.03;;
66575;SDS011;53428;47.686;16.584;2023-07-29T12:45:38;6.38;;;2.17;;
66575;SDS011;53428;47.686;16.584;2023-07-29T12:50:41;1.40;;;1.05;;
66575;SDS011;53428;47.686;16.584;2023-07-29T12:55:40;2.58;;;1.65;;
66575;SDS011;53428;47.686;16.584;2023-07-29T13:00:40;1.95;;;1.30;;
66575;SDS011;53428;47.686;16.584;2023-07-29T13:05:39;2.70;;;1.33;;
66575;SDS011;53428;47.686;16.584;2023-07-29T13:10:39;4.82;;;1.55;;
66575;SDS011;53428;47.686;16.584;2023-07-29T13:15:38;4.07;;;1.90;;
66575;SDS011;53428;47.686;16.584;2023-07-29T13:20:38;2.65;;;1.75;;
66575;SDS011;53428;47.686;16.584;2023-07-29T13:25:37;2.05;;;1.83;;
66575;SDS011;53428;47.686;16.584;2023-07-29T13:30:37;7.63;;;2.25;;
66575;SDS011;53428;47.686;16.584;2023-07-29T13:35:37;2.65;;;1.75;;
66575;SDS011;53428;47.686;16.584;2023-07-29T13:40:36;5.18;;;1.58;;
66575;SDS011;53428;47.686;16.584;2023-07-29T13:45:36;2.67;;;1.77;;
66575;SDS011;53428;47.686;16.584;2023-07-29T13:50:35;3.95;;;1.42;;
66575;SDS011;53428;47.686;16.584;2023-07-29T13:55:35;2.67;;;1.88;;
66575;SDS011;53428;47.686;16.584;2023-07-29T14:00:34;19.63;;;6.80;;
66575;SDS011;53428;47.686;16.584;2023-07-29T14:05:34;15.73;;;4.55;;
66575;SDS011;53428;47.686;16.584;2023-07-29T14:10:34;8.07;;;3.95;;
66575;SDS011;53428;47.686;16.584;2023-07-29T14:15:33;7.32;;;4.50;;
66575;SDS011;53428;47.686;16.584;2023-07-29T14:20:32;1.55;;;1.45;;
66575;SDS011;53428;47.686;16.584;2023-07-29T14:25:32;4.05;;;2.50;;
66575;SDS011;53428;47.686;16.584;2023-07-29T14:30:31;1.60;;;1.42;;
66575;SDS011;53428;47.686;16.584;2023-07-29T14:35:32;9.32;;;5.05;;
66575;SDS011;53428;47.686;16.584;2023-07-29T14:40:31;1.10;;;0.93;;
66575;SDS011;53428;47.686;16.584;2023-07-29T14:45:30;1.17;;;1.02;;
66575;SDS011;53428;47.686;16.584;2023-07-29T14:50:30;5.97;;;1.05;;
66575;SDS011;53428;47.686;16.584;2023-07-29T14:55:29;3.08;;;1.70;;
66575;SDS011;53428;47.686;16.584;2023-07-29T15:00:28;3.28;;;1.73;;
66575;SDS011;53428;47.686;16.584;2023-07-29T15:05:28;1.20;;;1.08;;
66575;SDS011;53428;47.686;16.584;2023-07-29T15:10:27;1.20;;;1.00;;
66575;SDS011;53428;47.686;16.584;2023-07-29T15:15:27;1.42;;;0.65;;
66575;SDS011;53428;47.686;16.584;2023-07-29T15:20:26;1.10;;;1.00;;
66575;SDS011;53428;47.686;16.584;2023-07-29T15:25:25;2.35;;;1.63;;
66575;SDS011;53428;47.686;16.584;2023-07-29T15:30:25;2.20;;;1.65;;
66575;SDS011;53428;47.686;16.584;2023-07-29T15:35:24;2.53;;;1.35;;
66575;SDS011;53428;47.686;16.584;2023-07-29T15:40:23;3.13;;;2.08;;
66575;SDS011;53428;47.686;16.584;2023-07-29T15:45:23;3.40;;;1.58;;
66575;SDS011;53428;47.686;16.584;2023-07-29T15:50:22;3.28;;;2.13;;
66575;SDS011;53428;47.686;16.584;2023-07-29T15:55:21;2.97;;;1.98;;
66575;SDS011;53428;47.686;16.584;2023-07-29T16:00:21;1.45;;;1.35;;
66575;SDS011;53428;47.686;16.584;2023-07-29T16:05:23;0.75;;;0.75;;
66575;SDS011;53428;47.686;16.584;2023-07-29T16:10:23;0.90;;;0.60;;
66575;SDS011;53428;47.686;16.584;2023-07-29T16:15:22;0.68;;;0.68;;
66575;SDS011;53428;47.686;16.584;2023-07-29T16:20:22;0.50;;;0.50;;
66575;SDS011;53428;47.686;16.584;2023-07-29T16:25:21;0.82;;;0.80;;
66575;SDS011;53428;47.686;16.584;2023-07-29T16:30:20;0.80;;;0.80;;
66575;SDS011;53428;47.686;16.584;2023-07-29T16:35:20;2.00;;;1.10;;
66575;SDS011;53428;47.686;16.584;2023-07-29T16:40:19;0.98;;;0.93;;
66575;SDS011;53428;47.686;16.584;2023-07-29T16:45:18;2.38;;;1.00;;
66575;SDS011;53428;47.686;16.584;2023-07-29T16:50:18;1.15;;;1.05;;
66575;SDS011;53428;47.686;16.584;2023-07-29T16:55:17;3.22;;;1.00;;
66575;SDS011;53428;47.686;16.584;2023-07-29T17:00:16;1.45;;;1.27;;
66575;SDS011;53428;47.686;16.584;2023-07-29T17:05:16;0.82;;;0.80;;
66575;SDS011;53428;47.686;16.584;2023-07-29T17:10:15;1.23;;;0.88;;
66575;SDS011;53428;47.686;16.584;2023-07-29T17:15:14;0.82;;;0.82;;
66575;SDS011;53428;47.686;16.584;2023-07-29T17:20:13;1.05;;;0.95;;
66575;SDS011;53428;47.686;16.584;2023-07-29T17:25:13;1.67;;;0.93;;
66575;SDS011;53428;47.686;16.584;2023-07-29T17:30:12;1.90;;;1.20;;
66575;SDS011;53428;47.686;16.584;2023-07-29T17:35:11;2.15;;;1.10;;
66575;SDS011;53428;47.686;16.584;2023-07-29T17:40:12;1.95;;;1.48;;
66575;SDS011;53428;47.686;16.584;2023-07-29T17:45:11;2.10;;;1.60;;
66575;SDS011;53428;47.686;16.584;2023-07-29T17:50:11;3.20;;;2.22;;
66575;SDS011;53428;47.686;16.584;2023-07-29T17:55:10;2.92;;;1.70;;
66575;SDS011;53428;47.686;16.584;2023-07-29T18:00:09;6.30;;;2.47;;
66575;SDS011;53428;47.686;16.584;2023-07-29T18:05:09;2.30;;;1.55;;
66575;SDS011;53428;47.686;16.584;2023-07-29T18:10:08;2.33;;;1.63;;
66575;SDS011;53428;47.686;16.584;2023-07-29T18:15:08;6.07;;;1.80;;
66575;SDS011;53428;47.686;16.584;2023-07-29T18:20:08;3.30;;;1.50;;
66575;SDS011;53428;47.686;16.584;2023-07-29T18:25:08;2.03;;;1.42;;
66575;SDS011;53428;47.686;16.584;2023-07-29T18:30:08;3.33;;;1.92;;
66575;SDS011;53428;47.686;16.584;2023-07-29T18:35:08;5.45;;;2.30;;
66575;SDS011;53428;47.686;16.584;2023-07-29T18:40:08;3.42;;;2.40;;
66575;SDS011;53428;47.686;16.584;2023-07-29T18:45:07;3.88;;;2.80;;
66575;SDS011;53428;47.686;16.584;2023-07-29T18:50:07;7.25;;;3.30;;
66575;SDS011;53428;47.686;16.584;2023-07-29T18:55:07;4.70;;;3.03;;
66575;SDS011;53428;47.686;16.584;2023-07-29T19:00:06;4.25;;;3.25;;
66575;SDS011;53428;47.686;16.584;2023-07-29T19:05:06;9.38;;;4.25;;
66575;SDS011;53428;47.686;16.584;2023-07-29T19:10:08;3.65;;;2.35;;
66575;SDS011;53428;47.686;16.584;2023-07-29T19:15:08;3.95;;;2.13;;
66575;SDS011;53428;47.686;16.584;2023-07-29T19:20:08;2.13;;;1.90;;
66575;SDS011;53428;47.686;16.584;2023-07-29T19:25:08;9.25;;;3.42;;
66575;SDS011;53428;47.686;16.584;2023-07-29T19:30:07;4.07;;;2.67;;
66575;SDS011;53428;47.686;16.584;2023-07-29T19:35:07;7.82;;;3.63;;
66575;SDS011;53428;47.686;16.584;2023-07-29T19:40:06;6.22;;;3.60;;
66575;SDS011;53428;47.686;16.584;2023-07-29T19:45:06;6.70;;;2.42;;
66575;SDS011;53428;47.686;16.584;2023-07-29T19:50:06;9.07;;;4.03;;
66575;SDS011;53428;47.686;16.584;2023-07-29T19:55:07;5.13;;;3.35;;
66575;SDS011;53428;47.686;16.584;2023-07-29T20:00:07;4.95;;;3.72;;
66575;SDS011;53428;47.686;16.584;2023-07-29T20:05:08;8.45;;;4.65;;
66575;SDS011;53428;47.686;16.584;2023-07-29T20:10:08;5.38;;;3.25;;
66575;SDS011;53428;47.686;16.584;2023-07-29T20:15:08;9.00;;;3.55;;
66575;SDS011;53428;47.686;16.584;2023-07-29T20:20:08;6.30;;;3.53;;
66575;SDS011;53428;47.686;16.584;2023-07-29T20:25:08;9.68;;;3.00;;
66575;SDS011;53428;47.686;16.584;2023-07-29T20:30:08;4.57;;;3.50;;
66575;SDS011;53428;47.686;16.584;2023-07-29T20:35:07;8.00;;;3.63;;
66575;SDS011;53428;47.686;16.584;2023-07-29T20:40:07;7.95;;;4.03;;
66575;SDS011;53428;47.686;16.584;2023-07-29T20:45:07;7.10;;;4.47;;
66575;SDS011;53428;47.686;16.584;2023-07-29T20:50:08;3.13;;;2.80;;
66575;SDS011;53428;47.686;16.584;2023-07-29T20:55:08;3.53;;;2.85;;
66575;SDS011;53428;47.686;16.584;2023-07-29T21:00:07;2.97;;;2.42;;
66575;SDS011;53428;47.686;16.584;2023-07-29T21:05:09;2.40;;;2.10;;
66575;SDS011;53428;47.686;16.584;2023-07-29T21:10:08;3.40;;;2.70;;
66575;SDS011;53428;47.686;16.584;2023-07-29T21:15:07;2.58;;;2.13;;
66575;SDS011;53428;47.686;16.584;2023-07-29T21:20:07;4.30;;;1.75;;
66575;SDS011;53428;47.686;16.584;2023-07-29T21:25:07;5.55;;;2.13;;
66575;SDS011;53428;47.686;16.584;2023-07-29T21:30:07;2.83;;;1.85;;
66575;SDS011;53428;47.686;16.584;2023-07-29T21:35:06;1.33;;;1.20;;
66575;SDS011;53428;47.686;16.584;2023-07-29T21:40:07;3.40;;;1.33;;
66575;SDS011;53428;47.686;16.584;2023-07-29T21:45:07;2.08;;;1.30;;
66575;SDS011;53428;47.686;16.584;2023-07-29T21:50:07;2.17;;;1.60;;
66575;SDS011;53428;47.686;16.584;2023-07-29T21:55:07;2.85;;;1.80;;
66575;SDS011;53428;47.686;16.584;2023-07-29T22:00:06;2.60;;;1.60;;
66575;SDS011;53428;47.686;16.584;2023-07-29T22:05:07;1.50;;;1.30;;
66575;SDS011;53428;47.686;16.584;2023-07-29T22:10:07;2.33;;;1.52;;
66575;SDS011;53428;47.686;16.584;2023-07-29T22:15:07;1.73;;;1.52;;
66575;SDS011;53428;47.686;16.584;2023-07-29T22:20:06;2.55;;;2.13;;
66575;SDS011;53428;47.686;16.584;2023-07-29T22:25:06;2.20;;;1.80;;
66575;SDS011;53428;47.686;16.584;2023-07-29T22:30:06;3.03;;;1.98;;
66575;SDS011;53428;47.686;16.584;2023-07-29T22:35:06;5.25;;;1.98;;
66575;SDS011;53428;47.686;16.584;2023-07-29T22:40:05;2.63;;;1.80;;
66575;SDS011;53428;47.686;16.584;2023-07-29T22:45:05;2.13;;;1.60;;
66575;SDS011;53428;47.686;16.584;2023-07-29T22:50:04;1.65;;;1.10;;
66575;SDS011;53428;47.686;16.584;2023-07-29T22:55:04;1.60;;;1.40;;
66575;SDS011;53428;47.686;16.584;2023-07-29T23:00:04;2.47;;;1.63;;
66575;SDS011;53428;47.686;16.584;2023-07-29T23:05:04;2.40;;;1.58;;
66575;SDS011;53428;47.686;16.584;2023-07-29T23:10:04;1.50;;;1.40;;
66575;SDS011;53428;47.686;16.584;2023-07-29T23:15:06;2.38;;;1.80;;
66575;SDS011;53428;47.686;16.584;2023-07-29T23:20:05;4.82;;;2.05;;
66575;SDS011;53428;47.686;16.584;2023-07-29T23:25:05;3.60;;;2.25;;
66575;SDS011;53428;47.686;16.584;2023-07-29T23:30:04;6.15;;;2.55;;
66575;SDS011;53428;47.686;16.584;2023-07-29T23:35:05;2.20;;;2.00;;
66575;SDS011;53428;47.686;16.584;2023-07-29T23:40:04;2.83;;;1.92;;
66575;SDS011;53428;47.686;16.584;2023-07-29T23:45:04;2.75;;;2.20;;
66575;SDS011;53428;47.686;16.584;2023-07-29T23:50:04;5.18;;;2.67;;
66575;SDS011;53428;47.686;16.584;2023-07-29T23:55:04;5.82;;;2.88;;
